Terminal Aerodrome Forecast
Issued by NWS Cleveland, OH

Home | Current Version | Previous Version | Text Only | Print | Product List | Glossary Off
Versions: 1 2 3 4 5 6 7 8 9 10 11 12 13 14 15 16 17

676
FTUS41 KCLE 160531
TAFCAK
TAF
KCAK 160531Z 1606/1706 24005KT 1SM -SN OVC015
     FM160700 25005KT 6SM -SN BKN015 OVC025
     FM161400 24008KT P6SM BKN015 OVC025
     FM161600 24009KT P6SM BKN025 OVC040
     FM170400 25005KT P6SM BKN010=

USA.gov is the U.S. government's official web portal to all federal, state and local government web resources and services.